Amber Beverly — VRHK5 — position and weather

sailwx.info

Track history (hours):
 
Tides and Currents Weather Stations Pressure Air Temp Water Temp Dewpoint Dewpoint Depression Visibility Wind Speed Wind Dir Waves Ship Positions

Amber Beverly

Last reported at 2014-Oct-12 14:31 UTC. Time now 2014-Oct-20 21:25 UTC.
Position N 21°33' E 108°20'.
Warning: this ship's position is 8 days out of date.

Length 190 m; draft 11.7 m.

Type: Cargo ship. MMSI: 477317100.

Date/timePositionNaut miles runAvg speedWind from/ knotsBaromVisibWave heightAir tempDewpointWater temp
2014-Oct-12 14:31N 21°33' E 108°20'  
2014-Oct-04 00:33N 01°14' E 103°60'5 4.6
2014-Oct-03 23:33N 01°16' E 103°56'0 0.1
2014-Oct-03 22:33N 01°16' E 103°56'0 0.1
2014-Oct-03 21:33N 01°16' E 103°56'0 0.1
2014-Oct-03 20:33N 01°17' E 103°56'0 0.1
2014-Oct-03 19:33N 01°17' E 103°56'0 0.1
2014-Oct-03 18:33N 01°17' E 103°56'0 0.0
2014-Oct-03 17:33N 01°16' E 103°56'0 0.1
2014-Oct-03 16:33N 01°16' E 103°56'0 0.0
2014-Oct-03 15:33N 01°16' E 103°56'0 0.0
2014-Oct-03 14:30N 01°16' E 103°56'0 0.1
2014-Oct-03 13:30N 01°17' E 103°56'0 0.0
2014-Oct-03 12:33N 01°17' E 103°56'1 0.6
2014-Oct-03 11:34N 01°16' E 103°56'2 2.3
2014-Oct-03 10:33N 01°14' E 103°56'8 8.2
2014-Oct-03 09:33N 01°10' E 103°48'9 9.0
2014-Oct-03 08:33N 01°04' E 103°41'  
Track history (hours):
 
Tides and Currents Weather Stations Pressure Air Temp Water Temp Dewpoint Dewpoint Depression Visibility Wind Speed Wind Dir Waves Ship Positions

Amber Beverly

Last reported at 2014-Oct-12 14:31 UTC. Time now 2014-Oct-20 21:25 UTC.
Position N 21°33' E 108°20'.
Warning: this ship's position is 8 days out of date.

Length 190 m; draft 11.7 m.

Type: Cargo ship. MMSI: 477317100.

Date/timePositionNaut miles runAvg speedWind from/ knotsBaromVisibWave heightAir tempDewpointWater temp
2014-Oct-12 14:31N 21°33' E 108°20'  
2014-Oct-04 00:33N 01°14' E 103°60'5 4.6
2014-Oct-03 23:33N 01°16' E 103°56'0 0.1
2014-Oct-03 22:33N 01°16' E 103°56'0 0.1
2014-Oct-03 21:33N 01°16' E 103°56'0 0.1
2014-Oct-03 20:33N 01°17' E 103°56'0 0.1
2014-Oct-03 19:33N 01°17' E 103°56'0 0.1
2014-Oct-03 18:33N 01°17' E 103°56'0 0.0
2014-Oct-03 17:33N 01°16' E 103°56'0 0.1
2014-Oct-03 16:33N 01°16' E 103°56'0 0.0
2014-Oct-03 15:33N 01°16' E 103°56'0 0.0
2014-Oct-03 14:30N 01°16' E 103°56'0 0.1
2014-Oct-03 13:30N 01°17' E 103°56'0 0.0
2014-Oct-03 12:33N 01°17' E 103°56'1 0.6
2014-Oct-03 11:34N 01°16' E 103°56'2 2.3
2014-Oct-03 10:33N 01°14' E 103°56'8 8.2
2014-Oct-03 09:33N 01°10' E 103°48'9 9.0
2014-Oct-03 08:33N 01°04' E 103°41'  

Dump ship's entire track history